createdAt,value
2023-04-16T00:02:01.364Z,2.60
2023-04-16T00:04:24.065Z,2.53
2023-04-16T00:06:46.665Z,2.50
2023-04-16T00:09:09.061Z,2.43
2023-04-16T00:11:31.402Z,4.50
2023-04-16T00:13:53.609Z,3.23
2023-04-16T00:16:16.049Z,2.60
2023-04-16T00:18:38.337Z,4.70
2023-04-16T00:21:00.629Z,2.40
2023-04-16T00:23:24.991Z,2.30
2023-04-16T00:25:47.221Z,2.20
2023-04-16T00:28:11.090Z,3.50
2023-04-16T00:30:33.708Z,2.10
2023-04-16T00:32:56.125Z,2.43
2023-04-16T00:35:18.596Z,2.30
2023-04-16T00:37:40.987Z,3.93
2023-04-16T00:40:03.460Z,2.67
2023-04-16T00:42:25.727Z,1.90
2023-04-16T00:44:47.925Z,1.70
2023-04-16T00:47:10.535Z,2.07
2023-04-16T00:49:32.878Z,1.73
2023-04-16T00:51:55.638Z,1.80
2023-04-16T00:54:18.041Z,1.63
2023-04-16T00:56:40.604Z,1.57
2023-04-16T00:59:02.961Z,2.73
2023-04-16T01:01:25.506Z,2.20
2023-04-16T01:03:48.700Z,1.90
2023-04-16T01:06:11.560Z,2.30
2023-04-16T01:08:34.113Z,1.57
2023-04-16T01:10:56.660Z,1.67
2023-04-16T01:13:18.944Z,1.40
2023-04-16T01:15:41.225Z,1.50
2023-04-16T01:18:03.627Z,1.43
2023-04-16T01:20:27.278Z,1.60
2023-04-16T01:22:49.835Z,1.33
2023-04-16T01:25:15.907Z,1.50
2023-04-16T01:27:38.143Z,1.23
2023-04-16T01:30:00.406Z,1.57
2023-04-16T01:32:34.194Z,1.10
2023-04-16T01:34:56.465Z,1.40
2023-04-16T01:37:18.992Z,1.10
2023-04-16T01:39:41.621Z,1.50
2023-04-16T01:42:04.068Z,1.20
2023-04-16T01:44:26.424Z,1.30
2023-04-16T01:46:48.752Z,1.20
2023-04-16T01:49:11.375Z,1.30
2023-04-16T01:51:34.068Z,1.30
2023-04-16T01:53:58.299Z,1.40
2023-04-16T01:56:20.578Z,1.20
2023-04-16T01:58:42.850Z,1.40
2023-04-16T02:01:05.923Z,1.13
2023-04-16T02:03:29.226Z,1.40
2023-04-16T02:05:52.304Z,1.33
2023-04-16T02:08:14.511Z,1.60
2023-04-16T02:10:36.747Z,1.80
2023-04-16T02:12:59.410Z,1.60
2023-04-16T02:15:21.607Z,1.47
2023-04-16T02:17:43.895Z,1.60
2023-04-16T02:20:08.229Z,1.77
2023-04-16T02:22:32.712Z,2.07
2023-04-16T02:24:55.021Z,1.97
2023-04-16T02:27:17.328Z,1.90
2023-04-16T02:29:39.684Z,2.00
2023-04-16T02:32:09.713Z,2.07
2023-04-16T02:34:33.640Z,2.37
2023-04-16T02:36:58.275Z,2.50
2023-04-16T02:39:20.896Z,2.73
2023-04-16T02:41:43.127Z,3.00
2023-04-16T02:44:05.498Z,2.57
2023-04-16T02:46:28.184Z,2.80
2023-04-16T02:48:50.595Z,2.70
2023-04-16T02:51:12.898Z,2.90
2023-04-16T02:53:35.527Z,2.57
2023-04-16T02:55:57.940Z,2.50
2023-04-16T02:58:24.216Z,2.50
2023-04-16T03:00:46.526Z,2.20
2023-04-16T03:03:08.844Z,2.50
2023-04-16T03:05:31.336Z,2.00
2023-04-16T03:07:56.703Z,2.77
2023-04-16T03:10:19.127Z,4.00
2023-04-16T03:12:41.398Z,2.30
2023-04-16T03:15:03.771Z,2.07
2023-04-16T03:17:26.064Z,2.33
2023-04-16T03:19:48.369Z,2.40
2023-04-16T03:22:10.824Z,2.33
2023-04-16T03:24:33.074Z,2.43
2023-04-16T03:26:55.218Z,2.20
2023-04-16T03:29:19.227Z,2.40
2023-04-16T03:31:42.828Z,2.40
2023-04-16T03:34:05.673Z,2.40
2023-04-16T03:36:28.153Z,2.37
2023-04-16T03:38:50.923Z,2.30
2023-04-16T03:41:13.315Z,2.60
2023-04-16T03:43:35.716Z,2.80
2023-04-16T03:45:57.962Z,2.90
2023-04-16T03:48:20.488Z,3.50
2023-04-16T03:50:47.219Z,3.10
2023-04-16T03:53:11.058Z,3.23
2023-04-16T03:55:33.340Z,3.57
2023-04-16T03:57:55.883Z,3.47
2023-04-16T04:00:18.174Z,3.20
2023-04-16T04:02:53.528Z,3.00
2023-04-16T04:05:16.032Z,3.87
2023-04-16T04:07:39.298Z,3.90
2023-04-16T04:10:01.783Z,3.47
2023-04-16T04:12:24.254Z,3.57
2023-04-16T04:14:47.376Z,3.30
2023-04-16T04:17:09.965Z,3.60
2023-04-16T04:19:32.883Z,3.70
2023-04-16T04:21:55.319Z,3.77
2023-04-16T04:24:17.611Z,3.70
2023-04-16T04:26:40.410Z,4.67
2023-04-16T04:29:02.807Z,4.40
2023-04-16T04:31:25.986Z,4.57
2023-04-16T04:33:48.408Z,4.40
2023-04-16T04:36:10.933Z,4.20
2023-04-16T04:38:33.308Z,4.60
2023-04-16T04:40:55.575Z,4.67
2023-04-16T04:43:20.152Z,3.77
2023-04-16T04:45:42.382Z,4.90
2023-04-16T04:48:05.045Z,4.50
2023-04-16T04:50:27.693Z,4.07
2023-04-16T04:52:49.906Z,4.33
2023-04-16T04:55:14.039Z,4.50
2023-04-16T04:57:36.531Z,4.67
2023-04-16T05:00:00.167Z,4.50
2023-04-16T05:02:26.048Z,4.40
2023-04-16T05:04:48.527Z,4.10
2023-04-16T05:07:10.940Z,4.03
2023-04-16T05:09:33.434Z,3.77
2023-04-16T05:11:55.649Z,4.47
2023-04-16T05:14:17.857Z,3.57
2023-04-16T05:16:40.348Z,4.47
2023-04-16T05:19:02.670Z,5.47
2023-04-16T05:21:26.274Z,3.37
2023-04-16T05:23:48.720Z,3.77
2023-04-16T05:26:11.154Z,4.30
2023-04-16T05:28:33.851Z,4.80
2023-04-16T05:30:56.120Z,3.40
2023-04-16T05:33:18.519Z,3.90
2023-04-16T05:35:40.828Z,3.90
2023-04-16T05:38:04.552Z,4.87
2023-04-16T05:40:27.080Z,3.73
2023-04-16T05:42:49.390Z,4.07
2023-04-16T05:45:11.745Z,4.50
2023-04-16T05:47:33.989Z,3.70
2023-04-16T05:49:56.250Z,3.70
2023-04-16T05:52:18.466Z,3.97
2023-04-16T05:54:40.739Z,3.87
2023-04-16T05:57:02.906Z,4.57
2023-04-16T05:59:25.510Z,4.90
2023-04-16T06:01:48.164Z,4.73
2023-04-16T06:04:10.561Z,4.30
2023-04-16T06:06:33.005Z,4.43
2023-04-16T06:08:55.229Z,4.57
2023-04-16T06:11:17.454Z,4.77
2023-04-16T06:13:39.851Z,4.63
2023-04-16T06:16:02.118Z,4.80
2023-04-16T06:18:24.504Z,3.90
2023-04-16T06:20:46.695Z,5.07
2023-04-16T06:23:08.923Z,4.97
2023-04-16T06:25:31.176Z,4.50
2023-04-16T06:27:53.357Z,5.07
2023-04-16T06:30:16.278Z,5.33
2023-04-16T06:32:38.620Z,4.80
2023-04-16T06:35:00.852Z,5.07
2023-04-16T06:37:23.052Z,6.00
2023-04-16T06:39:45.346Z,5.67
2023-04-16T06:42:07.604Z,4.77
2023-04-16T06:44:30.226Z,5.20
2023-04-16T06:46:52.509Z,5.47
2023-04-16T06:49:15.068Z,4.50
2023-04-16T06:51:37.247Z,4.47
2023-04-16T06:53:59.624Z,4.33
2023-04-16T06:56:21.827Z,4.53
2023-04-16T06:58:44.208Z,4.20
2023-04-16T07:01:06.907Z,4.13
2023-04-16T07:03:30.476Z,4.53
2023-04-16T07:05:52.753Z,4.60
2023-04-16T07:08:14.980Z,4.43
2023-04-16T07:10:37.233Z,4.73
2023-04-16T07:13:01.520Z,4.73
2023-04-16T07:15:23.815Z,5.27
2023-04-16T07:17:46.277Z,4.93
2023-04-16T07:20:08.991Z,4.00
2023-04-16T07:22:31.699Z,4.73
2023-04-16T07:24:53.870Z,4.67
2023-04-16T07:27:17.087Z,4.20
2023-04-16T07:29:39.754Z,5.93
2023-04-16T07:32:02.061Z,4.47
2023-04-16T07:34:24.611Z,4.70
2023-04-16T07:36:46.954Z,4.53
2023-04-16T07:39:11.866Z,5.17
2023-04-16T07:41:34.537Z,3.83
2023-04-16T07:43:56.928Z,3.93
2023-04-16T07:46:19.199Z,5.27
2023-04-16T07:48:41.537Z,3.80
2023-04-16T07:51:03.928Z,3.87
2023-04-16T07:53:26.199Z,4.00
2023-04-16T07:55:48.406Z,5.00
2023-04-16T07:58:11.656Z,3.53
2023-04-16T08:00:33.905Z,4.63
2023-04-16T08:02:56.408Z,3.83
2023-04-16T08:05:19.521Z,5.03
2023-04-16T08:07:41.765Z,3.60
2023-04-16T08:10:04.089Z,3.23
2023-04-16T08:12:51.622Z,2.93
2023-04-16T08:15:14.086Z,3.50
2023-04-16T08:19:08.112Z,2.93
2023-04-16T08:20:45.378Z,3.42
2023-04-16T08:23:27.962Z,2.70
2023-04-16T08:25:51.845Z,2.90
2023-04-16T08:28:15.937Z,2.55
2023-04-16T08:30:38.443Z,2.90
2023-04-16T08:33:01.017Z,4.28
2023-04-16T08:35:23.253Z,2.80
2023-04-16T08:37:46.596Z,3.00
2023-04-16T08:40:09.533Z,3.37
2023-04-16T08:42:33.362Z,3.40
2023-04-16T08:45:03.698Z,3.37
2023-04-16T08:47:26.737Z,2.47
2023-04-16T08:49:49.168Z,3.03
2023-04-16T08:52:15.258Z,3.05
2023-04-16T08:54:57.244Z,3.33
2023-04-16T08:57:21.387Z,3.15
2023-04-16T09:00:31.900Z,4.37
2023-04-16T09:02:54.637Z,2.50
2023-04-16T09:05:17.649Z,3.17
2023-04-16T09:07:42.858Z,3.10
2023-04-16T09:10:05.998Z,3.10
2023-04-16T09:12:28.660Z,3.85
2023-04-16T09:15:12.100Z,3.10
2023-04-16T09:21:18.314Z,3.33
2023-04-16T09:23:41.187Z,3.00
2023-04-16T09:26:05.486Z,3.30
2023-04-16T09:28:46.395Z,3.50
2023-04-16T09:31:09.666Z,3.00
2023-04-16T09:33:34.931Z,3.65
2023-04-16T09:35:57.878Z,3.50
2023-04-16T09:38:21.901Z,3.22
2023-04-16T09:40:44.809Z,3.38
2023-04-16T09:43:14.963Z,4.32
2023-04-16T09:45:48.868Z,3.85
2023-04-16T09:48:14.194Z,3.20
2023-04-16T09:50:40.337Z,3.38
2023-04-16T09:53:03.726Z,3.58
2023-04-16T09:55:28.309Z,3.40
2023-04-16T09:58:02.692Z,2.92
2023-04-16T10:00:29.614Z,3.40
2023-04-16T10:03:04.066Z,5.15
2023-04-16T10:05:27.093Z,2.85
2023-04-16T10:07:52.771Z,3.15
2023-04-16T10:10:17.170Z,3.10
2023-04-16T10:12:39.630Z,2.55
2023-04-16T10:15:10.320Z,3.10
2023-04-16T10:17:36.763Z,3.47
2023-04-16T10:20:03.036Z,4.80
2023-04-16T10:22:52.544Z,3.10
2023-04-16T10:25:15.355Z,3.20
2023-04-16T10:27:38.339Z,3.67
2023-04-16T10:30:01.280Z,2.70
2023-04-16T10:32:28.646Z,2.70
2023-04-16T10:34:51.663Z,2.90
2023-04-16T10:37:14.323Z,3.97
2023-04-16T10:40:23.574Z,2.85
2023-04-16T10:42:56.623Z,2.90
2023-04-16T10:45:19.101Z,2.80
2023-04-16T10:48:05.498Z,3.67
2023-04-16T10:50:37.700Z,2.80
2023-04-16T10:56:33.493Z,2.42
2023-04-16T10:59:07.015Z,3.40
2023-04-16T11:01:34.092Z,2.63
2023-04-16T11:03:56.835Z,3.28
2023-04-16T11:06:26.219Z,2.90
2023-04-16T11:08:54.428Z,2.78
2023-04-16T11:14:22.154Z,2.42
2023-04-16T11:20:17.714Z,2.20
2023-04-16T11:22:43.272Z,2.78
2023-04-16T11:25:06.203Z,2.47
2023-04-16T11:34:01.130Z,2.42
2023-04-16T11:36:26.123Z,2.67
2023-04-16T11:39:05.001Z,2.67
2023-04-16T11:41:28.933Z,2.17
2023-04-16T11:44:25.590Z,2.53
2023-04-16T11:47:14.079Z,2.50
2023-04-16T11:49:37.313Z,2.20
2023-04-16T11:52:12.424Z,2.05
2023-04-16T11:54:51.786Z,2.35
2023-04-16T11:57:24.556Z,2.45
2023-04-16T12:00:19.296Z,2.45
2023-04-16T12:02:51.894Z,2.30
2023-04-16T12:05:37.892Z,2.42
2023-04-16T12:08:05.766Z,3.00
2023-04-16T12:10:29.071Z,2.65
2023-04-16T12:16:37.681Z,2.00
2023-04-16T12:19:34.272Z,2.35
2023-04-16T12:22:01.637Z,3.05
2023-04-16T12:24:27.742Z,3.58
2023-04-16T12:30:22.816Z,2.20
2023-04-16T12:33:18.541Z,2.10
2023-04-16T12:39:11.506Z,2.42
2023-04-16T12:41:37.246Z,2.08
2023-04-16T12:44:32.014Z,2.10
2023-04-16T12:46:55.270Z,2.22
2023-04-16T12:49:18.632Z,2.35
2023-04-16T12:51:42.315Z,2.60
2023-04-16T12:54:23.373Z,1.95
2023-04-16T12:56:49.648Z,1.90
2023-04-16T12:59:14.918Z,2.20
2023-04-16T13:01:37.735Z,2.08
2023-04-16T13:04:03.310Z,2.30
2023-04-16T13:06:37.960Z,2.70
2023-04-16T13:12:28.539Z,2.47
2023-04-16T13:15:00.271Z,2.72
2023-04-16T13:17:48.206Z,2.50
2023-04-16T13:20:11.113Z,2.50
2023-04-16T13:25:44.408Z,2.85
2023-04-16T13:28:17.214Z,2.30
2023-04-16T13:30:40.757Z,2.55
2023-04-16T13:33:03.615Z,2.47
2023-04-16T13:35:27.840Z,2.10
2023-04-16T13:37:50.750Z,2.30
2023-04-16T13:40:43.054Z,2.60
2023-04-16T13:43:07.806Z,2.30
2023-04-16T13:45:31.191Z,2.40
2023-04-16T13:48:37.489Z,1.85
2023-04-16T13:53:37.554Z,1.73
2023-04-16T13:56:03.616Z,1.77
2023-04-16T13:58:26.736Z,1.80
2023-04-16T14:00:52.779Z,2.00
2023-04-16T14:03:40.699Z,1.77
2023-04-16T14:06:03.954Z,2.25
2023-04-16T14:08:39.123Z,3.17
2023-04-16T14:11:02.186Z,2.00
2023-04-16T14:13:25.122Z,1.85
2023-04-16T14:15:47.661Z,2.70
2023-04-16T14:18:10.376Z,2.22
2023-04-16T14:23:13.239Z,3.42
2023-04-16T14:25:38.129Z,3.65
2023-04-16T14:28:04.138Z,2.80
2023-04-16T14:30:26.471Z,3.08
2023-04-16T14:32:49.019Z,3.20
2023-04-16T14:35:12.217Z,2.63
2023-04-16T14:37:38.858Z,2.80
2023-04-16T14:46:50.700Z,2.77
2023-04-16T14:49:33.547Z,2.97
2023-04-16T14:51:57.415Z,3.20
2023-04-16T14:54:40.438Z,3.00
2023-04-16T14:57:03.592Z,2.63
2023-04-16T14:59:26.448Z,2.80
2023-04-16T15:01:49.315Z,3.25
2023-04-16T15:04:11.862Z,3.22
2023-04-16T15:19:07.779Z,5.88
2023-04-16T15:21:31.849Z,6.15
2023-04-16T15:23:56.136Z,6.78
2023-04-16T15:26:18.607Z,6.32
2023-04-16T15:28:41.395Z,6.38
2023-04-16T15:31:03.769Z,6.32
2023-04-16T15:33:26.531Z,5.97
2023-04-16T15:35:49.229Z,6.82
2023-04-16T15:41:07.635Z,6.82
2023-04-16T15:43:30.050Z,6.77
2023-04-16T15:46:02.059Z,6.75
2023-04-16T15:48:28.191Z,7.68
2023-04-16T15:51:35.819Z,8.00
2023-04-16T15:54:20.686Z,6.40
2023-04-16T15:56:43.338Z,7.37
2023-04-16T15:59:26.182Z,7.57
2023-04-16T16:01:50.453Z,7.93
2023-04-16T16:04:14.392Z,6.97
2023-04-16T16:06:38.134Z,7.95
2023-04-16T16:09:01.094Z,8.02
2023-04-16T16:11:28.510Z,7.50
2023-04-16T16:13:51.052Z,9.23
2023-04-16T16:19:25.848Z,8.77
2023-04-16T16:21:48.174Z,8.05
2023-04-16T16:24:10.602Z,9.15
2023-04-16T16:26:33.122Z,11.37
2023-04-16T16:28:57.722Z,10.70
2023-04-16T16:31:20.168Z,10.38
2023-04-16T16:33:42.778Z,9.70
2023-04-16T16:36:06.214Z,12.63
2023-04-16T16:38:31.846Z,10.93
2023-04-16T16:41:23.226Z,10.10
2023-04-16T16:43:45.794Z,11.98
2023-04-16T16:46:09.947Z,11.97
2023-04-16T16:48:51.792Z,11.80
2023-04-16T16:51:16.496Z,11.35
2023-04-16T16:53:47.862Z,12.73
2023-04-16T16:56:19.575Z,12.07
2023-04-16T16:58:42.230Z,13.05
2023-04-16T17:01:26.527Z,13.05
2023-04-16T17:03:49.641Z,12.80
2023-04-16T17:06:12.178Z,13.93
2023-04-16T17:08:37.468Z,14.77
2023-04-16T17:11:03.153Z,14.52
2023-04-16T17:13:25.791Z,14.13
2023-04-16T17:16:08.839Z,15.23
2023-04-16T17:18:32.983Z,14.27
2023-04-16T17:20:55.602Z,14.57
2023-04-16T17:23:18.802Z,16.40
2023-04-16T17:26:01.204Z,15.50
2023-04-16T17:28:27.097Z,16.77
2023-04-16T17:30:53.217Z,15.93
2023-04-16T17:33:21.400Z,16.30
2023-04-16T17:35:48.027Z,16.63
2023-04-16T17:38:10.633Z,14.83
2023-04-16T17:40:59.392Z,15.57
2023-04-16T17:43:21.766Z,15.53
2023-04-16T17:45:45.362Z,14.30
2023-04-16T17:48:07.831Z,15.70
2023-04-16T17:53:17.721Z,15.87
2023-04-16T17:55:39.996Z,15.13
2023-04-16T17:58:04.226Z,15.67
2023-04-16T18:00:26.696Z,15.67
2023-04-16T18:02:49.146Z,15.67
2023-04-16T18:05:11.754Z,15.57
2023-04-16T18:07:34.740Z,13.83
2023-04-16T18:09:56.986Z,16.80
2023-04-16T18:12:22.261Z,15.23
2023-04-16T18:14:47.306Z,13.60
2023-04-16T18:17:14.309Z,14.00
2023-04-16T18:19:36.870Z,16.70
2023-04-16T18:21:59.376Z,15.67
2023-04-16T18:24:21.692Z,14.83
2023-04-16T18:26:46.712Z,14.03
2023-04-16T18:29:09.625Z,14.47
2023-04-16T18:31:32.122Z,15.50
2023-04-16T18:33:57.798Z,14.30
2023-04-16T18:36:21.956Z,13.90
2023-04-16T18:38:59.390Z,14.87
2023-04-16T18:41:23.213Z,14.73
2023-04-16T18:43:46.106Z,14.80
2023-04-16T18:46:08.566Z,16.07
2023-04-16T18:48:31.166Z,14.30
2023-04-16T18:50:53.552Z,13.13
2023-04-16T18:53:16.020Z,14.53
2023-04-16T18:55:38.327Z,13.87
2023-04-16T18:58:00.658Z,15.67
2023-04-16T19:00:23.088Z,13.60
2023-04-16T19:02:47.292Z,15.33
2023-04-16T19:05:12.827Z,15.30
2023-04-16T19:07:38.589Z,13.80
2023-04-16T19:10:02.540Z,14.97
2023-04-16T19:12:24.951Z,17.90
2023-04-16T19:14:49.869Z,16.17
2023-04-16T19:17:12.325Z,15.57
2023-04-16T19:19:35.508Z,16.37
2023-04-16T19:21:59.702Z,15.50
2023-04-16T19:24:23.553Z,14.43
2023-04-16T19:26:45.980Z,14.43
2023-04-16T19:29:08.351Z,17.17
2023-04-16T19:31:30.766Z,17.97
2023-04-16T19:33:53.944Z,15.03
2023-04-16T19:36:16.212Z,15.47
2023-04-16T19:38:38.814Z,16.37
2023-04-16T19:41:01.129Z,17.20
2023-04-16T19:43:23.357Z,16.33
2023-04-16T19:45:46.572Z,14.77
2023-04-16T19:48:09.003Z,15.00
2023-04-16T19:50:31.243Z,15.80
2023-04-16T19:52:53.543Z,17.63
2023-04-16T19:55:16.169Z,15.57
2023-04-16T19:57:38.405Z,14.57
2023-04-16T20:00:01.013Z,14.43
2023-04-16T20:02:23.389Z,15.97
2023-04-16T20:04:47.954Z,17.23
2023-04-16T20:07:10.351Z,13.70
2023-04-16T20:09:32.716Z,16.20
2023-04-16T20:11:54.954Z,13.37
2023-04-16T20:14:17.300Z,15.60
2023-04-16T20:16:39.604Z,16.00
2023-04-16T20:19:04.580Z,16.80
2023-04-16T20:21:28.125Z,15.57
2023-04-16T20:23:50.578Z,15.23
2023-04-16T20:26:18.953Z,16.27
2023-04-16T20:28:41.175Z,15.37
2023-04-16T20:31:03.585Z,16.67
2023-04-16T20:33:28.764Z,16.70
2023-04-16T20:35:52.212Z,13.70
2023-04-16T20:38:14.609Z,16.60
2023-04-16T20:40:38.601Z,14.03
2023-04-16T20:43:01.159Z,15.73
2023-04-16T20:45:24.265Z,14.40
2023-04-16T20:47:46.572Z,16.43
2023-04-16T20:50:09.169Z,13.73
2023-04-16T20:52:31.388Z,13.83
2023-04-16T20:54:53.707Z,13.60
2023-04-16T20:57:15.979Z,13.97
2023-04-16T20:59:38.231Z,15.63
2023-04-16T21:02:00.830Z,16.10
2023-04-16T21:04:23.383Z,15.47
2023-04-16T21:06:45.741Z,15.67
2023-04-16T21:09:07.996Z,14.77
2023-04-16T21:11:33.239Z,14.43
2023-04-16T21:13:55.458Z,13.43
2023-04-16T21:16:18.525Z,16.30
2023-04-16T21:18:41.066Z,19.77
2023-04-16T21:21:03.403Z,15.47
2023-04-16T21:23:25.815Z,15.57
2023-04-16T21:25:48.030Z,13.90
2023-04-16T21:28:10.397Z,14.40
2023-04-16T21:30:32.701Z,17.20
2023-04-16T21:32:55.005Z,15.63
2023-04-16T21:35:17.537Z,17.40
2023-04-16T21:37:39.756Z,17.93
2023-04-16T21:40:02.134Z,14.83
2023-04-16T21:42:24.354Z,15.10
2023-04-16T21:44:46.593Z,16.33
2023-04-16T21:47:09.096Z,16.00
2023-04-16T21:49:31.348Z,18.23
2023-04-16T21:51:59.278Z,16.57
2023-04-16T21:54:22.786Z,17.00
2023-04-16T21:56:45.046Z,19.47
2023-04-16T21:59:07.362Z,20.60
2023-04-16T22:01:29.655Z,21.40
2023-04-16T22:03:52.387Z,19.97
2023-04-16T22:06:16.660Z,22.37
2023-04-16T22:08:39.549Z,23.10
2023-04-16T22:11:02.456Z,26.47
2023-04-16T22:13:25.907Z,23.97
2023-04-16T22:15:48.174Z,21.37
2023-04-16T22:18:10.453Z,21.93
2023-04-16T22:20:39.033Z,24.90
2023-04-16T22:23:01.744Z,25.77
2023-04-16T22:25:24.431Z,26.33
2023-04-16T22:27:46.835Z,23.70
2023-04-16T22:30:09.405Z,23.63
2023-04-16T22:32:31.875Z,23.47
2023-04-16T22:34:54.292Z,22.70
2023-04-16T22:37:16.603Z,19.30
2023-04-16T22:39:38.870Z,25.23
2023-04-16T22:42:01.869Z,23.10
2023-04-16T22:44:24.118Z,20.63
2023-04-16T22:46:46.941Z,21.70
2023-04-16T22:49:09.349Z,23.60
2023-04-16T22:51:31.940Z,22.27
2023-04-16T22:53:54.586Z,23.00
2023-04-16T22:56:16.976Z,22.33
2023-04-16T22:58:39.168Z,22.40
2023-04-16T23:01:01.964Z,23.53
2023-04-16T23:03:24.498Z,24.80
2023-04-16T23:05:46.919Z,23.40
2023-04-16T23:08:09.643Z,21.87
2023-04-16T23:10:31.890Z,23.47
2023-04-16T23:12:54.152Z,25.73
2023-04-16T23:15:16.705Z,24.30
2023-04-16T23:17:39.716Z,24.97
2023-04-16T23:20:02.227Z,24.90
2023-04-16T23:22:24.520Z,25.60
2023-04-16T23:24:46.875Z,25.67
2023-04-16T23:27:09.528Z,26.73
2023-04-16T23:29:32.633Z,29.07
2023-04-16T23:31:54.912Z,29.20
2023-04-16T23:34:17.306Z,27.50
2023-04-16T23:36:40.638Z,26.90
2023-04-16T23:39:02.898Z,27.97
2023-04-16T23:41:25.136Z,30.07
2023-04-16T23:43:47.340Z,32.07
2023-04-16T23:46:09.621Z,31.70
2023-04-16T23:48:32.008Z,28.37
2023-04-16T23:50:54.466Z,30.07
2023-04-16T23:53:16.803Z,33.27
2023-04-16T23:55:39.015Z,25.67
2023-04-16T23:58:01.609Z,28.77
